Terminal Aerodrome Forecast
Issued by NWS

Current Version | Previous Version | Text Only | Print | Product List | Glossary Off
Versions: 1 2 3 4 5 6 7 8 9 10 11 12 13 14 15 16 17

000
FTUS41 KILN 250533
TAFLUK
TAF
KLUK 250533Z 2506/2606 00000KT P6SM SCT250
     FM250800 00000KT 3SM BR SCT250
      TEMPO 2508/2511 1SM BR
     FM251100 00000KT P6SM SCT250
     FM251700 14004KT P6SM FEW060 BKN250
     FM260000 00000KT P6SM SCT250=

USA.gov is the U.S. government's official web portal to all federal, state and local government web resources and services.